Perrysville, OH (44864)

4:33 PM EDT on August 27, 2016 (GMT -0400)
Perrysville , Ohio | | Change Station

Elev 965 ft 40.65 °N, 82.31 °W | Updated 9 seconds ago

Partly Cloudy
Partly Cloudy
92.8 °F
Feels Like 103 °F
N
0.0
Wind Variable Wind from North
Gusts 0.0 mph

Today
High -- | Low -- °F
--% Chance of Precip.
Yesterday
High -- | Low -- °F
Precip. -- in
Pressure 30.10 in
Visibility 10.0 miles
Clouds Few 4400 ft
Heat Index 103 °F
Dew Point 74 °F
Humidity 55%
Rainfall 0.00 in
Snow Depth Not available.
6:51 AM 8:08 PM
Waning Crescent, 21% visible
METAR KMFD 271952Z 16010KT 10SM FEW044 32/22 A3013 RMK AO2 SLP191 T03220217
Pressure 30.10 in
Visibility 10.0 miles
Clouds Few 4400 ft
Heat Index 103 °F
Dew Point 74 °F
Humidity 55%
Rainfall 0.00 in
Snow Depth Not available.
6:51 AM 8:08 PM
Waning Crescent, 21% visible
METAR KMFD 271952Z 16010KT 10SM FEW044 32/22 A3013 RMK AO2 SLP191 T03220217

10-Day Weather Forecast

Almanac

Astronomy

Aug. 27, 2016 Rise Set
Actual Time
Civil Twilight
Nautical Twilight
Astronomical Twilight
Moon
Length of Visible Light
Length of Day
Tomorrow will be .
, % of the Moon is Illuminated

Today's Extremes

State Highs State Lows

Community

WunderPhotos

Upload Photos

1,935,434 photos uploaded!

WunderBlog® & News

Nearby

Air Quality

  Air Quality AQ Index Pollutant
Not available.

Snow Depth

Station Depth Elevation

Earthquake Activity

City Distance Mag. Time & Date
Minimum magnitude displayed is 2.5.

Coastal Water Temperatures

Place Temperature

Stations

Nearby Weather Stations

Station Location Temp. Windchill Dew Point Humidity Wind Precip. Elev Updated Type
                   

Watches & Warnings

There are currently no watches in effect.